createdAt,value
2023-01-13T00:01:48.267Z,-4.32
2023-01-13T00:04:15.426Z,-4.31
2023-01-13T00:06:42.599Z,-4.30
2023-01-13T00:09:09.825Z,-4.30
2023-01-13T00:11:36.975Z,-4.31
2023-01-13T00:14:04.121Z,-4.34
2023-01-13T00:16:31.376Z,-4.35
2023-01-13T00:18:58.512Z,-4.32
2023-01-13T00:21:25.616Z,-4.37
2023-01-13T00:23:54.180Z,-4.37
2023-01-13T00:26:23.419Z,-4.36
2023-01-13T00:28:51.027Z,-4.38
2023-01-13T00:31:19.677Z,-4.39
2023-01-13T00:33:49.071Z,-4.41
2023-01-13T00:36:16.356Z,-4.44
2023-01-13T00:38:43.931Z,-4.46
2023-01-13T00:41:12.851Z,-4.45
2023-01-13T00:43:40.107Z,-4.47
2023-01-13T00:46:08.305Z,-4.50
2023-01-13T00:48:35.734Z,-4.47
2023-01-13T00:51:08.107Z,-4.48
2023-01-13T00:53:36.955Z,-4.49
2023-01-13T00:56:10.120Z,-4.49
2023-01-13T00:58:37.296Z,-4.51
2023-01-13T01:01:07.771Z,-4.48
2023-01-13T01:03:35.199Z,-4.49
2023-01-13T01:06:13.390Z,-4.46
2023-01-13T01:08:40.765Z,-4.48
2023-01-13T01:11:12.510Z,-4.48
2023-01-13T01:13:39.861Z,-4.46
2023-01-13T01:16:08.579Z,-4.44
2023-01-13T01:18:36.575Z,-4.47
2023-01-13T01:21:04.123Z,-4.44
2023-01-13T01:23:31.734Z,-4.46
2023-01-13T01:26:13.080Z,-4.46
2023-01-13T01:28:40.372Z,-4.44
2023-01-13T01:31:13.181Z,-4.43
2023-01-13T01:33:41.445Z,-4.42
2023-01-13T01:36:09.532Z,-4.41
2023-01-13T01:38:36.591Z,-4.19
2023-01-13T01:41:03.924Z,-4.06
2023-01-13T01:44:00.009Z,-4.18
2023-01-13T01:46:37.055Z,-4.23
2023-01-13T01:49:39.873Z,-4.22
2023-01-13T01:52:15.964Z,-4.14
2023-01-13T01:54:47.926Z,-4.26
2023-01-13T01:57:19.180Z,-4.23
2023-01-13T01:59:46.425Z,-4.22
2023-01-13T02:02:13.564Z,-4.24
2023-01-13T02:04:41.669Z,-4.24
2023-01-13T02:07:08.718Z,-4.23
2023-01-13T02:09:35.868Z,-4.23
2023-01-13T02:12:21.735Z,-4.22
2023-01-13T02:14:48.894Z,-4.21
2023-01-13T02:17:26.180Z,-4.22
2023-01-13T02:20:14.937Z,-4.23
2023-01-13T02:23:35.835Z,-4.23
2023-01-13T02:26:22.138Z,-4.20
2023-01-13T02:29:42.747Z,-4.21
2023-01-13T02:32:15.001Z,-4.20
2023-01-13T02:35:23.322Z,-4.21
2023-01-13T02:37:50.371Z,-4.23
2023-01-13T02:40:23.565Z,-4.22
2023-01-13T02:43:36.013Z,-4.20
2023-01-13T02:46:15.498Z,-4.19
2023-01-13T02:48:43.691Z,-4.16
2023-01-13T02:51:14.020Z,-4.14
2023-01-13T02:53:44.132Z,-4.13
2023-01-13T02:56:11.486Z,-4.12
2023-01-13T02:58:38.640Z,-4.12
2023-01-13T03:01:05.870Z,-4.13
2023-01-13T03:03:33.039Z,-4.11
2023-01-13T03:06:26.839Z,-4.10
2023-01-13T03:09:03.797Z,-4.08
2023-01-13T03:11:35.496Z,-4.07
2023-01-13T03:14:21.343Z,-4.06
2023-01-13T03:16:59.619Z,-4.06
2023-01-13T03:19:35.864Z,-4.05
2023-01-13T03:22:22.536Z,-4.03
2023-01-13T03:25:17.834Z,-4.01
2023-01-13T03:27:56.053Z,-4.02
2023-01-13T03:30:33.491Z,-4.01
2023-01-13T03:33:19.025Z,-4.00
2023-01-13T03:35:47.798Z,-4.01
2023-01-13T03:38:39.452Z,-4.00
2023-01-13T03:41:07.769Z,-3.99
2023-01-13T03:43:55.965Z,-3.97
2023-01-13T03:46:30.021Z,-3.98
2023-01-13T03:48:57.621Z,-3.91
2023-01-13T03:51:25.554Z,-3.95
2023-01-13T03:53:56.021Z,-3.95
2023-01-13T03:56:27.720Z,-3.95
2023-01-13T03:58:54.981Z,-3.94
2023-01-13T04:01:26.327Z,-3.93
2023-01-13T04:04:01.737Z,-3.94
2023-01-13T04:06:47.938Z,-3.95
2023-01-13T04:09:35.436Z,-3.94
2023-01-13T04:12:09.117Z,-3.92
2023-01-13T04:14:36.197Z,-3.88
2023-01-13T04:17:03.242Z,-3.89
2023-01-13T04:19:31.426Z,-3.88
2023-01-13T04:21:58.978Z,-3.89
2023-01-13T04:24:26.228Z,-3.89
2023-01-13T04:26:53.371Z,-3.89
2023-01-13T04:29:20.468Z,-3.90
2023-01-13T04:31:47.570Z,-3.88
2023-01-13T04:34:14.809Z,-3.88
2023-01-13T04:36:41.876Z,-3.88
2023-01-13T04:39:09.032Z,-3.86
2023-01-13T04:41:55.463Z,-3.85
2023-01-13T04:44:22.568Z,-3.86
2023-01-13T04:46:49.620Z,-3.84
2023-01-13T04:49:16.769Z,-3.84
2023-01-13T04:51:43.873Z,-3.84
2023-01-13T04:54:11.589Z,-3.83
2023-01-13T04:56:38.735Z,-3.83
2023-01-13T04:59:05.884Z,-3.83
2023-01-13T05:01:33.134Z,-3.83
2023-01-13T05:04:00.438Z,-3.83
2023-01-13T05:06:27.535Z,-3.83
2023-01-13T05:08:54.684Z,-3.84
2023-01-13T05:11:40.481Z,-3.84
2023-01-13T05:14:26.256Z,-3.86
2023-01-13T05:17:00.379Z,-3.87
2023-01-13T05:19:32.091Z,-3.86
2023-01-13T05:22:18.098Z,-3.85
2023-01-13T05:25:03.943Z,-3.87
2023-01-13T05:27:30.988Z,-3.88
2023-01-13T05:29:58.315Z,-3.87
2023-01-13T05:32:25.716Z,-3.88
2023-01-13T05:34:52.846Z,-3.87
2023-01-13T05:37:19.968Z,-3.87
2023-01-13T05:40:05.659Z,-3.86
2023-01-13T05:42:51.542Z,-3.85
2023-01-13T05:45:18.637Z,-3.83
2023-01-13T05:47:45.786Z,-3.81
2023-01-13T05:50:12.969Z,-3.80
2023-01-13T05:52:40.188Z,-3.80
2023-01-13T05:55:07.856Z,-3.80
2023-01-13T05:57:34.958Z,-3.78
2023-01-13T06:00:02.555Z,-3.77
2023-01-13T06:02:38.614Z,-3.75
2023-01-13T06:05:06.031Z,-3.75
2023-01-13T06:07:33.081Z,-3.76
2023-01-13T06:10:00.195Z,-3.77
2023-01-13T06:12:27.262Z,-3.75
2023-01-13T06:14:54.325Z,-3.75
2023-01-13T06:17:21.369Z,-3.75
2023-01-13T06:19:48.421Z,-3.78
2023-01-13T06:22:21.896Z,-3.76
2023-01-13T06:24:53.878Z,-3.74
2023-01-13T06:27:21.545Z,-3.74
2023-01-13T06:29:48.794Z,-3.74
2023-01-13T06:32:17.890Z,-3.72
2023-01-13T06:34:47.906Z,-3.70
2023-01-13T06:37:15.168Z,-3.68
2023-01-13T06:39:42.362Z,-3.63
2023-01-13T06:42:28.149Z,-3.63
2023-01-13T06:44:55.349Z,-3.61
2023-01-13T06:47:22.606Z,-3.60
2023-01-13T06:49:49.649Z,-3.60
2023-01-13T06:52:16.952Z,-3.57
2023-01-13T06:54:44.184Z,-3.53
2023-01-13T06:57:11.328Z,-3.54
2023-01-13T06:59:38.661Z,-3.55
2023-01-13T07:02:05.979Z,-3.55
2023-01-13T07:04:33.168Z,-3.56
2023-01-13T07:07:00.319Z,-3.55
2023-01-13T07:09:27.361Z,-3.52
2023-01-13T07:11:54.454Z,-3.50
2023-01-13T07:14:40.116Z,-3.50
2023-01-13T07:17:07.147Z,-3.49
2023-01-13T07:19:34.198Z,-3.46
2023-01-13T07:22:01.522Z,-3.45
2023-01-13T07:24:28.708Z,-3.43
2023-01-13T07:26:55.744Z,-3.42
2023-01-13T07:29:22.892Z,-3.42
2023-01-13T07:31:50.403Z,-3.38
2023-01-13T07:34:17.702Z,-3.35
2023-01-13T07:36:44.955Z,-3.33
2023-01-13T07:39:12.024Z,-3.31
2023-01-13T07:41:58.132Z,-3.30
2023-01-13T07:44:27.821Z,-3.29
2023-01-13T07:46:54.959Z,-3.24
2023-01-13T07:49:22.037Z,-3.19
2023-01-13T07:51:49.024Z,-3.16
2023-01-13T07:54:16.100Z,-3.12
2023-01-13T07:56:43.181Z,-3.13
2023-01-13T07:59:10.296Z,-3.15
2023-01-13T08:01:37.899Z,-3.17
2023-01-13T08:04:05.130Z,-3.18
2023-01-13T08:06:32.427Z,-3.20
2023-01-13T08:08:59.457Z,-3.19
2023-01-13T08:11:26.671Z,-3.15
2023-01-13T08:13:58.082Z,-3.13
2023-01-13T08:16:25.090Z,-3.12
2023-01-13T08:18:52.241Z,-3.13
2023-01-13T08:21:19.309Z,-3.13
2023-01-13T08:23:46.412Z,-3.12
2023-01-13T08:26:15.512Z,-3.13
2023-01-13T08:28:42.567Z,-3.14
2023-01-13T08:31:14.495Z,-3.13
2023-01-13T08:33:42.129Z,-3.09
2023-01-13T08:36:10.562Z,-3.06
2023-01-13T08:38:38.270Z,-3.04
2023-01-13T08:41:12.540Z,-3.06
2023-01-13T08:43:39.686Z,-3.11
2023-01-13T08:46:07.049Z,-3.15
2023-01-13T08:48:34.329Z,-3.16
2023-01-13T08:51:03.020Z,-3.15
2023-01-13T08:53:30.334Z,-3.12
2023-01-13T08:55:57.425Z,-3.07
2023-01-13T08:58:24.540Z,-3.04
2023-01-13T09:00:51.588Z,-2.99
2023-01-13T09:03:18.733Z,-2.97
2023-01-13T09:05:45.984Z,-2.94
2023-01-13T09:08:13.350Z,-2.90
2023-01-13T09:10:40.806Z,-2.90
2023-01-13T09:13:11.949Z,-2.90
2023-01-13T09:15:40.509Z,-2.90
2023-01-13T09:18:07.686Z,-2.90
2023-01-13T09:20:34.728Z,-2.90
2023-01-13T09:23:01.821Z,-2.89
2023-01-13T09:25:28.923Z,-2.89
2023-01-13T09:27:56.905Z,-2.87
2023-01-13T09:30:24.619Z,-2.81
2023-01-13T09:33:11.664Z,-2.76
2023-01-13T09:35:38.815Z,-2.72
2023-01-13T09:38:06.689Z,-2.69
2023-01-13T09:40:33.838Z,-2.66
2023-01-13T09:43:40.929Z,-2.61
2023-01-13T09:46:41.929Z,-2.56
2023-01-13T09:49:21.020Z,-2.54
2023-01-13T09:51:54.734Z,-2.54
2023-01-13T09:54:33.785Z,-2.59
2023-01-13T09:57:01.065Z,-2.58
2023-01-13T09:59:32.691Z,-2.53
2023-01-13T10:02:03.946Z,-2.53
2023-01-13T10:04:31.063Z,-2.51
2023-01-13T10:07:00.903Z,-2.49
2023-01-13T10:09:33.731Z,-2.47
2023-01-13T10:12:19.840Z,-2.44
2023-01-13T10:14:53.444Z,-2.43
2023-01-13T10:17:32.875Z,-2.45
2023-01-13T10:20:09.229Z,-2.40
2023-01-13T10:23:15.289Z,-2.38
2023-01-13T10:26:10.384Z,-2.36
2023-01-13T10:28:37.747Z,-2.36
2023-01-13T10:31:11.061Z,-2.35
2023-01-13T10:33:38.231Z,-2.36
2023-01-13T10:36:18.060Z,-2.38
2023-01-13T10:38:46.568Z,-2.39
2023-01-13T10:41:17.055Z,-2.40
2023-01-13T10:44:02.380Z,-2.38
2023-01-13T10:46:29.616Z,-2.35
2023-01-13T10:48:58.474Z,-2.35
2023-01-13T10:51:30.550Z,-2.33
2023-01-13T10:54:01.840Z,-2.33
2023-01-13T10:56:33.240Z,-2.29
2023-01-13T10:59:09.599Z,-2.32
2023-01-13T11:01:37.519Z,-2.35
2023-01-13T11:04:35.225Z,-2.37
2023-01-13T11:07:03.580Z,-2.37
2023-01-13T11:09:31.272Z,-2.38
2023-01-13T11:11:58.834Z,-2.39
2023-01-13T11:14:36.933Z,-2.41
2023-01-13T11:17:10.098Z,-2.41
2023-01-13T11:19:40.458Z,-2.40
2023-01-13T11:22:11.073Z,-2.41
2023-01-13T11:24:41.782Z,-2.41
2023-01-13T11:27:18.201Z,-2.42
2023-01-13T11:30:10.139Z,-2.45
2023-01-13T11:32:41.427Z,-2.48
2023-01-13T11:35:16.633Z,-2.49
2023-01-13T11:37:45.656Z,-2.51
2023-01-13T11:40:27.808Z,-2.53
2023-01-13T11:43:11.232Z,-2.55
2023-01-13T11:45:46.546Z,-2.57
2023-01-13T11:48:21.287Z,-2.58
2023-01-13T11:51:04.729Z,-2.53
2023-01-13T11:53:53.003Z,-2.55
2023-01-13T11:56:51.265Z,-2.59
2023-01-13T11:59:52.149Z,-2.63
2023-01-13T12:02:25.676Z,-2.64
2023-01-13T12:05:28.694Z,-2.66
2023-01-13T12:08:23.087Z,-2.67
2023-01-13T12:10:54.146Z,-2.71
2023-01-13T12:13:24.776Z,-2.78
2023-01-13T12:15:58.270Z,-2.80
2023-01-13T12:18:37.605Z,-2.83
2023-01-13T12:21:14.163Z,-2.84
2023-01-13T12:23:49.455Z,-2.85
2023-01-13T12:26:16.941Z,-2.85
2023-01-13T12:28:59.328Z,-2.84
2023-01-13T12:31:26.532Z,-2.85
2023-01-13T12:34:26.423Z,-2.85
2023-01-13T12:36:56.091Z,-2.85
2023-01-13T12:39:29.445Z,-2.86
2023-01-13T12:42:40.435Z,-2.83
2023-01-13T12:45:07.789Z,-2.82
2023-01-13T12:47:44.605Z,-2.82
2023-01-13T12:50:24.002Z,-2.85
2023-01-13T12:52:54.622Z,-2.89
2023-01-13T12:55:34.159Z,-2.92
2023-01-13T12:58:07.432Z,-2.96
2023-01-13T13:00:40.891Z,-2.97
2023-01-13T13:03:19.488Z,-2.98
2023-01-13T13:06:00.531Z,-2.97
2023-01-13T13:08:55.686Z,-2.98
2023-01-13T13:11:53.027Z,-2.98
2023-01-13T13:14:55.764Z,-3.00
2023-01-13T13:17:28.996Z,-3.04
2023-01-13T13:19:56.646Z,-3.06
2023-01-13T13:22:26.662Z,-3.07
2023-01-13T13:24:57.714Z,-3.08
2023-01-13T13:27:41.349Z,-3.10
2023-01-13T13:30:20.632Z,-3.07
2023-01-13T13:32:54.790Z,-3.06
2023-01-13T13:35:52.015Z,-3.07
2023-01-13T13:38:40.905Z,-3.09
2023-01-13T13:41:36.912Z,-3.09
2023-01-13T13:44:47.295Z,-3.09
2023-01-13T13:47:14.580Z,-3.10
2023-01-13T13:52:36.177Z,-3.09
2023-01-13T13:55:08.525Z,-3.09
2023-01-13T13:57:39.669Z,-3.10
2023-01-13T14:00:28.628Z,-3.09
2023-01-13T14:03:02.024Z,-3.09
2023-01-13T14:05:36.185Z,-3.11
2023-01-13T14:08:09.336Z,-3.13
2023-01-13T14:10:37.947Z,-3.13
2023-01-13T14:13:30.661Z,-3.13
2023-01-13T14:16:07.616Z,-3.16
2023-01-13T14:18:43.186Z,-3.20
2023-01-13T14:21:27.996Z,-3.21
2023-01-13T14:23:58.379Z,-3.23
2023-01-13T14:26:27.057Z,-3.25
2023-01-13T14:28:54.559Z,-3.25
2023-01-13T14:31:21.694Z,-3.25
2023-01-13T14:33:59.776Z,-3.20
2023-01-13T14:36:33.053Z,-3.17
2023-01-13T14:39:03.298Z,-3.16
2023-01-13T14:48:35.957Z,-3.16
2023-01-13T14:51:05.905Z,-3.19
2023-01-13T14:53:39.722Z,-3.19
2023-01-13T14:56:42.341Z,-3.19
2023-01-13T14:59:31.461Z,-3.19
2023-01-13T15:01:58.886Z,-3.20
2023-01-13T15:04:34.261Z,-3.21
2023-01-13T15:07:01.518Z,-3.21
2023-01-13T15:09:31.357Z,-3.22
2023-01-13T15:11:59.006Z,-3.23
2023-01-13T15:14:27.975Z,-3.26
2023-01-13T15:16:56.032Z,-3.26
2023-01-13T15:19:23.113Z,-3.26
2023-01-13T15:21:50.193Z,-3.26
2023-01-13T15:24:17.290Z,-3.27
2023-01-13T15:26:44.452Z,-3.27
2023-01-13T15:29:14.723Z,-3.27
2023-01-13T15:31:42.635Z,-3.27
2023-01-13T15:34:09.787Z,-3.26
2023-01-13T15:36:38.162Z,-3.26
2023-01-13T15:39:05.222Z,-3.28
2023-01-13T15:41:51.469Z,-3.27
2023-01-13T15:44:37.202Z,-3.28
2023-01-13T15:47:06.747Z,-3.29
2023-01-13T15:49:41.305Z,-3.29
2023-01-13T15:52:19.333Z,-3.27
2023-01-13T15:54:46.554Z,-3.26
2023-01-13T15:57:24.948Z,-3.26
2023-01-13T15:59:53.797Z,-3.25
2023-01-13T16:02:22.795Z,-3.24
2023-01-13T16:04:51.612Z,-3.24
2023-01-13T16:07:18.861Z,-3.23
2023-01-13T16:09:46.319Z,-3.23
2023-01-13T16:12:13.635Z,-3.23
2023-01-13T16:14:40.762Z,-3.21
2023-01-13T16:17:16.560Z,-3.21
2023-01-13T16:19:44.271Z,-3.21
2023-01-13T16:22:14.210Z,-3.20
2023-01-13T16:24:41.619Z,-3.19
2023-01-13T16:27:22.575Z,-3.17
2023-01-13T16:29:50.140Z,-3.15
2023-01-13T16:32:17.397Z,-3.14
2023-01-13T16:34:44.653Z,-3.15
2023-01-13T16:37:32.051Z,-3.16
2023-01-13T16:39:59.231Z,-3.15
2023-01-13T16:42:26.451Z,-3.15
2023-01-13T16:44:53.488Z,-3.15
2023-01-13T16:47:20.593Z,-3.14
2023-01-13T16:49:47.643Z,-3.13
2023-01-13T16:52:14.821Z,-3.11
2023-01-13T16:54:42.150Z,-3.08
2023-01-13T16:57:12.981Z,-3.08
2023-01-13T16:59:40.140Z,-3.09
2023-01-13T17:02:19.268Z,-3.10
2023-01-13T17:04:47.831Z,-3.07
2023-01-13T17:07:17.055Z,-3.06
2023-01-13T17:09:44.138Z,-3.05
2023-01-13T17:12:11.911Z,-3.06
2023-01-13T17:14:38.870Z,-3.06
2023-01-13T17:17:05.995Z,-3.06
2023-01-13T17:19:33.358Z,-3.07
2023-01-13T17:22:00.378Z,-3.08
2023-01-13T17:24:29.479Z,-3.06
2023-01-13T17:26:57.658Z,-3.06
2023-01-13T17:29:26.762Z,-3.06
2023-01-13T17:31:53.952Z,-3.06
2023-01-13T17:34:21.413Z,-3.05
2023-01-13T17:36:48.736Z,-3.03
2023-01-13T17:39:20.755Z,-3.04
2023-01-13T17:41:48.016Z,-3.03
2023-01-13T17:44:16.254Z,-3.04
2023-01-13T17:46:43.750Z,-3.04
2023-01-13T17:49:14.754Z,-3.03
2023-01-13T17:51:41.940Z,-3.02
2023-01-13T17:54:12.534Z,-3.02
2023-01-13T17:56:40.649Z,-3.02
2023-01-13T17:59:10.197Z,-3.03
2023-01-13T18:01:38.130Z,-3.02
2023-01-13T18:04:14.189Z,-3.02
2023-01-13T18:06:41.186Z,-3.03
2023-01-13T18:09:08.282Z,-3.03
2023-01-13T18:11:35.443Z,-3.02
2023-01-13T18:14:02.885Z,-3.01
2023-01-13T18:16:30.781Z,-3.01
2023-01-13T18:19:19.390Z,-3.01
2023-01-13T18:22:05.792Z,-3.00
2023-01-13T18:24:51.500Z,-2.99
2023-01-13T18:27:21.451Z,-2.98
2023-01-13T18:29:50.267Z,-2.97
2023-01-13T18:32:17.438Z,-2.96
2023-01-13T18:34:44.479Z,-2.96
2023-01-13T18:37:12.156Z,-2.96
2023-01-13T18:39:39.310Z,-2.95
2023-01-13T18:42:25.564Z,-2.95
2023-01-13T18:44:57.350Z,-2.89
2023-01-13T18:47:25.682Z,-2.88
2023-01-13T18:49:52.847Z,-2.87
2023-01-13T18:52:19.886Z,-2.86
2023-01-13T18:54:47.648Z,-2.86
2023-01-13T18:57:15.568Z,-2.85
2023-01-13T18:59:42.707Z,-2.83
2023-01-13T19:02:15.130Z,-2.84
2023-01-13T19:04:42.843Z,-2.85
2023-01-13T19:07:13.169Z,-2.85
2023-01-13T19:09:42.282Z,-2.83
2023-01-13T19:12:11.898Z,-2.83
2023-01-13T19:14:40.633Z,-2.82
2023-01-13T19:17:11.340Z,-2.83
2023-01-13T19:19:45.888Z,-2.83
2023-01-13T19:22:13.892Z,-2.82
2023-01-13T19:24:42.295Z,-2.82
2023-01-13T19:27:10.239Z,-2.81
2023-01-13T19:29:37.390Z,-2.82
2023-01-13T19:32:09.143Z,-2.82
2023-01-13T19:34:36.610Z,-2.80
2023-01-13T19:37:04.106Z,-2.80
2023-01-13T19:39:31.158Z,-2.80
2023-01-13T19:42:24.576Z,-2.79
2023-01-13T19:45:11.241Z,-2.79
2023-01-13T19:47:39.160Z,-2.78
2023-01-13T19:50:08.362Z,-2.79
2023-01-13T19:52:35.719Z,-2.79
2023-01-13T19:55:02.802Z,-2.79
2023-01-13T19:57:30.007Z,-2.79
2023-01-13T19:59:57.155Z,-2.79
2023-01-13T20:02:31.826Z,-2.79
2023-01-13T20:05:00.305Z,-2.77
2023-01-13T20:07:29.335Z,-2.76
2023-01-13T20:09:56.760Z,-2.74
2023-01-13T20:12:27.711Z,-2.74
2023-01-13T20:15:00.099Z,-2.72
2023-01-13T20:17:27.549Z,-2.69
2023-01-13T20:19:54.843Z,-2.69
2023-01-13T20:22:21.988Z,-2.66
2023-01-13T20:24:55.081Z,-2.66
2023-01-13T20:27:24.128Z,-2.66
2023-01-13T20:29:51.332Z,-2.66
2023-01-13T20:32:18.377Z,-2.66
2023-01-13T20:34:45.642Z,-2.66
2023-01-13T20:37:12.771Z,-2.66
2023-01-13T20:39:43.322Z,-2.68
2023-01-13T20:42:29.293Z,-2.68
2023-01-13T20:44:57.170Z,-2.69
2023-01-13T20:47:24.697Z,-2.69
2023-01-13T20:49:52.756Z,-2.70
2023-01-13T20:52:20.050Z,-2.70
2023-01-13T20:54:47.195Z,-2.69
2023-01-13T20:57:14.419Z,-2.70
2023-01-13T20:59:41.602Z,-2.70
2023-01-13T21:02:13.297Z,-2.71
2023-01-13T21:04:40.719Z,-2.72
2023-01-13T21:07:08.064Z,-2.73
2023-01-13T21:09:35.201Z,-2.76
2023-01-13T21:12:21.107Z,-2.78
2023-01-13T21:15:07.227Z,-2.80
2023-01-13T21:17:53.096Z,-2.82
2023-01-13T21:20:20.161Z,-2.83
2023-01-13T21:22:48.320Z,-2.84
2023-01-13T21:25:15.972Z,-2.84
2023-01-13T21:27:44.261Z,-2.86
2023-01-13T21:30:15.129Z,-2.86
2023-01-13T21:32:43.793Z,-2.89
2023-01-13T21:35:11.458Z,-2.91
2023-01-13T21:37:39.028Z,-2.91
2023-01-13T21:40:07.852Z,-2.92
2023-01-13T21:42:53.679Z,-2.91
2023-01-13T21:45:39.457Z,-2.91
2023-01-13T21:48:07.299Z,-2.93
2023-01-13T21:50:34.616Z,-2.92
2023-01-13T21:53:01.830Z,-2.91
2023-01-13T21:55:29.153Z,-2.90
2023-01-13T21:58:14.668Z,-2.91
2023-01-13T22:00:43.209Z,-2.91
2023-01-13T22:03:11.531Z,-2.91
2023-01-13T22:05:38.736Z,-2.91
2023-01-13T22:08:05.892Z,-2.92
2023-01-13T22:10:34.304Z,-2.93
2023-01-13T22:13:21.871Z,-2.93
2023-01-13T22:15:48.921Z,-2.94
2023-01-13T22:18:18.308Z,-2.94
2023-01-13T22:20:46.022Z,-2.95
2023-01-13T22:23:13.133Z,-2.96
2023-01-13T22:25:40.108Z,-2.96
2023-01-13T22:28:09.531Z,-2.96
2023-01-13T22:30:36.757Z,-2.96
2023-01-13T22:33:03.975Z,-2.95
2023-01-13T22:35:31.140Z,-2.95
2023-01-13T22:37:58.502Z,-2.94
2023-01-13T22:40:25.546Z,-2.91
2023-01-13T22:42:52.604Z,-2.91
2023-01-13T22:45:19.841Z,-2.90
2023-01-13T22:47:46.988Z,-2.90
2023-01-13T22:50:14.043Z,-2.90
2023-01-13T22:52:41.108Z,-2.90
2023-01-13T22:55:08.622Z,-2.89
2023-01-13T22:57:46.613Z,-2.89
2023-01-13T23:00:15.122Z,-2.90
2023-01-13T23:02:42.284Z,-2.92
2023-01-13T23:05:09.574Z,-2.92
2023-01-13T23:07:36.623Z,-2.93
2023-01-13T23:10:04.666Z,-2.91
2023-01-13T23:12:31.644Z,-2.88
2023-01-13T23:14:58.665Z,-2.86
2023-01-13T23:17:25.828Z,-2.86
2023-01-13T23:19:52.944Z,-2.85
2023-01-13T23:22:20.094Z,-2.85
2023-01-13T23:24:47.220Z,-2.87
2023-01-13T23:27:14.199Z,-2.86
2023-01-13T23:29:41.542Z,-2.86
2023-01-13T23:32:08.592Z,-2.87
2023-01-13T23:34:35.604Z,-2.88
2023-01-13T23:37:02.690Z,-2.87
2023-01-13T23:39:29.738Z,-2.87
2023-01-13T23:41:56.890Z,-2.88
2023-01-13T23:44:23.946Z,-2.86
2023-01-13T23:46:51.084Z,-2.86
2023-01-13T23:49:18.339Z,-2.86
2023-01-13T23:51:45.586Z,-2.86
2023-01-13T23:54:12.634Z,-2.87
2023-01-13T23:56:39.783Z,-2.87
2023-01-13T23:59:07.041Z,-2.89
